Santo Antonio, Brazil
Current Conditions -  °F | °C
As of 7:00 PM on Monday 24 Nov 2014 (Local Time) from SBNT Reporting Station
Scattered Clouds Scattered Clouds  
Wind Chill: 81°   Ceiling: Unl
Heat Index: 84°   Visibility: 6mi
Dew Point: 70°   Wind: 14mph
Humidity: 70%   Direction: 110°ESE
Pressure: 29.91"   Gusts: NA
Location:  6.31°S, 35.48°W
Report Text: SBNT 242200Z 11012KT 9999 SCT021 27/21 Q1013
Loading
Personal Weather Stations






























Interactive Weather Map New forecast layout! Learn more

10-Day Weather Forecast

Advertisements
Track Severe Weather on mobile